createdAt,value
2023-03-02T00:00:42.231Z,47.73
2023-03-02T00:03:09.980Z,49.18
2023-03-02T00:05:37.298Z,49.20
2023-03-02T00:08:04.723Z,48.15
2023-03-02T00:10:32.009Z,48.58
2023-03-02T00:12:59.308Z,48.27
2023-03-02T00:15:26.850Z,47.87
2023-03-02T00:17:54.148Z,46.51
2023-03-02T00:20:21.435Z,47.24
2023-03-02T00:22:48.790Z,47.82
2023-03-02T00:25:16.528Z,46.55
2023-03-02T00:27:43.849Z,47.16
2023-03-02T00:30:14.964Z,48.25
2023-03-02T00:32:42.326Z,48.20
2023-03-02T00:35:09.934Z,46.82
2023-03-02T00:37:37.392Z,47.09
2023-03-02T00:40:06.836Z,47.93
2023-03-02T00:42:34.117Z,48.44
2023-03-02T00:45:01.584Z,48.62
2023-03-02T00:47:29.742Z,49.04
2023-03-02T00:49:57.072Z,49.01
2023-03-02T00:52:24.327Z,48.23
2023-03-02T00:54:51.588Z,48.44
2023-03-02T00:57:18.918Z,47.28
2023-03-02T00:59:46.795Z,48.22
2023-03-02T01:02:23.276Z,49.84
2023-03-02T01:04:53.235Z,49.68
2023-03-02T01:07:26.257Z,50.12
2023-03-02T01:09:53.560Z,51.02
2023-03-02T01:12:20.867Z,51.00
2023-03-02T01:14:48.674Z,51.37
2023-03-02T01:17:16.144Z,50.80
2023-03-02T01:19:43.397Z,50.25
2023-03-02T01:22:10.765Z,49.92
2023-03-02T01:24:38.033Z,50.65
2023-03-02T01:27:05.388Z,50.41
2023-03-02T01:29:32.670Z,50.79
2023-03-02T01:32:00.272Z,50.85
2023-03-02T01:34:27.676Z,51.11
2023-03-02T01:36:54.955Z,50.88
2023-03-02T01:39:22.694Z,51.57
2023-03-02T01:41:51.065Z,51.49
2023-03-02T01:44:44.662Z,51.54
2023-03-02T01:47:34.025Z,51.07
2023-03-02T01:50:24.119Z,50.85
2023-03-02T01:52:55.601Z,50.92
2023-03-02T01:55:25.255Z,51.43
2023-03-02T01:57:53.598Z,51.14
2023-03-02T02:00:23.766Z,51.76
2023-03-02T02:02:51.704Z,52.05
2023-03-02T02:05:23.288Z,51.77
2023-03-02T02:07:51.304Z,52.13
2023-03-02T02:10:18.748Z,51.46
2023-03-02T02:12:46.034Z,52.49
2023-03-02T02:15:13.295Z,52.54
2023-03-02T02:17:40.601Z,53.05
2023-03-02T02:20:31.256Z,52.75
2023-03-02T02:23:04.556Z,53.13
2023-03-02T02:25:52.975Z,52.66
2023-03-02T02:28:51.391Z,53.61
2023-03-02T02:31:35.649Z,54.31
2023-03-02T02:34:22.768Z,52.91
2023-03-02T02:36:54.936Z,53.63
2023-03-02T02:39:25.107Z,53.66
2023-03-02T02:41:54.241Z,53.71
2023-03-02T02:44:21.709Z,53.84
2023-03-02T02:46:49.026Z,53.82
2023-03-02T02:49:35.317Z,53.99
2023-03-02T02:52:03.339Z,54.07
2023-03-02T02:54:30.614Z,54.09
2023-03-02T02:56:58.560Z,54.31
2023-03-02T02:59:29.064Z,54.01
2023-03-02T03:01:59.002Z,53.74
2023-03-02T03:04:28.520Z,53.98
2023-03-02T03:06:57.279Z,54.05
2023-03-02T03:09:24.953Z,54.00
2023-03-02T03:11:56.966Z,54.40
2023-03-02T03:14:30.230Z,54.51
2023-03-02T03:16:57.949Z,53.84
2023-03-02T03:19:32.646Z,54.43
2023-03-02T03:22:01.717Z,54.26
2023-03-02T03:24:34.099Z,54.49
2023-03-02T03:27:01.550Z,54.73
2023-03-02T03:29:30.408Z,54.72
2023-03-02T03:32:01.186Z,54.80
2023-03-02T03:34:29.299Z,54.66
2023-03-02T03:37:01.781Z,54.59
2023-03-02T03:39:32.054Z,54.92
2023-03-02T03:41:59.385Z,55.33
2023-03-02T03:44:26.916Z,55.24
2023-03-02T03:46:54.538Z,55.09
2023-03-02T03:49:22.062Z,56.16
2023-03-02T03:51:49.498Z,55.59
2023-03-02T03:54:16.823Z,56.12
2023-03-02T03:56:45.722Z,56.77
2023-03-02T03:59:16.888Z,55.43
2023-03-02T04:01:59.220Z,56.01
2023-03-02T04:04:32.490Z,55.43
2023-03-02T04:07:00.535Z,56.36
2023-03-02T04:09:27.970Z,56.27
2023-03-02T04:11:56.222Z,56.94
2023-03-02T04:14:24.645Z,56.02
2023-03-02T04:16:53.672Z,56.12
2023-03-02T04:19:22.689Z,55.49
2023-03-02T04:21:53.781Z,55.45
2023-03-02T04:24:22.572Z,56.24
2023-03-02T04:26:51.608Z,56.21
2023-03-02T04:29:19.358Z,56.48
2023-03-02T04:31:48.480Z,56.76
2023-03-02T04:34:16.944Z,57.13
2023-03-02T04:36:45.450Z,56.54
2023-03-02T04:39:15.626Z,57.01
2023-03-02T04:41:46.603Z,56.08
2023-03-02T04:44:14.446Z,55.81
2023-03-02T04:46:44.214Z,56.50
2023-03-02T04:49:12.640Z,56.73
2023-03-02T04:51:41.813Z,57.04
2023-03-02T04:54:23.300Z,56.76
2023-03-02T04:56:51.624Z,56.04
2023-03-02T04:59:20.465Z,56.12
2023-03-02T05:01:47.904Z,56.41
2023-03-02T05:04:15.321Z,56.51
2023-03-02T05:06:42.558Z,57.09
2023-03-02T05:09:09.985Z,56.71
2023-03-02T05:11:37.319Z,56.39
2023-03-02T05:14:07.006Z,56.61
2023-03-02T05:16:36.172Z,57.47
2023-03-02T05:19:04.400Z,58.37
2023-03-02T05:21:31.666Z,57.50
2023-03-02T05:23:59.059Z,58.07
2023-03-02T05:26:26.355Z,57.67
2023-03-02T05:28:54.157Z,58.66
2023-03-02T05:31:23.789Z,58.23
2023-03-02T05:33:51.120Z,58.40
2023-03-02T05:36:20.278Z,58.50
2023-03-02T05:38:48.538Z,58.34
2023-03-02T05:41:15.817Z,58.15
2023-03-02T05:43:43.407Z,57.89
2023-03-02T05:46:10.792Z,57.92
2023-03-02T05:48:38.210Z,57.73
2023-03-02T05:51:05.815Z,58.24
2023-03-02T05:53:33.162Z,57.90
2023-03-02T05:56:00.684Z,56.60
2023-03-02T05:58:28.034Z,57.20
2023-03-02T06:00:55.500Z,55.88
2023-03-02T06:03:22.880Z,54.09
2023-03-02T06:05:51.079Z,54.08
2023-03-02T06:08:19.398Z,53.21
2023-03-02T06:10:46.850Z,53.11
2023-03-02T06:13:19.930Z,53.08
2023-03-02T06:15:47.215Z,53.85
2023-03-02T06:18:22.122Z,54.04
2023-03-02T06:20:49.941Z,53.73
2023-03-02T06:23:17.752Z,54.28
2023-03-02T06:25:48.790Z,54.48
2023-03-02T06:28:23.634Z,54.86
2023-03-02T06:30:53.224Z,54.46
2023-03-02T06:33:21.429Z,53.37
2023-03-02T06:35:49.455Z,53.17
2023-03-02T06:38:17.188Z,53.46
2023-03-02T06:40:45.519Z,52.39
2023-03-02T06:43:14.323Z,52.52
2023-03-02T06:45:41.805Z,51.20
2023-03-02T06:48:09.361Z,50.84
2023-03-02T06:50:36.845Z,50.39
2023-03-02T06:53:06.023Z,50.09
2023-03-02T06:55:38.866Z,50.28
2023-03-02T06:58:13.325Z,49.14
2023-03-02T07:00:40.847Z,48.76
2023-03-02T07:03:08.263Z,47.92
2023-03-02T07:05:36.931Z,47.90
2023-03-02T07:08:04.476Z,46.83
2023-03-02T07:10:33.906Z,46.55
2023-03-02T07:13:01.501Z,46.27
2023-03-02T07:15:28.884Z,46.42
2023-03-02T07:17:56.209Z,45.37
2023-03-02T07:20:23.673Z,45.19
2023-03-02T07:22:53.637Z,44.89
2023-03-02T07:25:21.105Z,43.79
2023-03-02T07:27:48.339Z,43.83
2023-03-02T07:30:15.691Z,44.47
2023-03-02T07:32:42.996Z,43.64
2023-03-02T07:35:10.412Z,44.38
2023-03-02T07:37:37.751Z,43.86
2023-03-02T07:40:06.660Z,44.13
2023-03-02T07:42:33.995Z,43.51
2023-03-02T07:45:04.458Z,43.85
2023-03-02T07:47:32.289Z,43.06
2023-03-02T07:49:59.758Z,43.22
2023-03-02T07:52:29.727Z,43.34
2023-03-02T07:55:00.302Z,42.88
2023-03-02T07:57:28.028Z,42.99
2023-03-02T07:59:56.529Z,42.86
2023-03-02T08:02:25.927Z,43.44
2023-03-02T08:04:54.356Z,43.01
2023-03-02T08:07:21.775Z,43.37
2023-03-02T08:09:49.208Z,42.98
2023-03-02T08:12:16.848Z,42.33
2023-03-02T08:14:45.739Z,42.70
2023-03-02T08:17:14.228Z,42.45
2023-03-02T08:19:41.605Z,42.11
2023-03-02T08:22:08.931Z,42.63
2023-03-02T08:24:36.194Z,42.16
2023-03-02T08:27:03.736Z,42.45
2023-03-02T08:29:31.259Z,42.47
2023-03-02T08:32:01.892Z,42.01
2023-03-02T08:34:29.947Z,41.61
2023-03-02T08:37:00.545Z,41.67
2023-03-02T08:39:30.476Z,41.25
2023-03-02T08:41:57.906Z,41.41
2023-03-02T08:44:25.368Z,41.48
2023-03-02T08:46:52.709Z,41.09
2023-03-02T08:49:20.024Z,40.90
2023-03-02T08:51:49.105Z,40.91
2023-03-02T08:54:16.483Z,40.73
2023-03-02T08:56:44.610Z,40.34
2023-03-02T08:59:12.818Z,40.51
2023-03-02T09:01:40.611Z,40.49
2023-03-02T09:04:08.675Z,40.31
2023-03-02T09:06:38.259Z,40.38
2023-03-02T09:09:05.636Z,39.74
2023-03-02T09:11:33.503Z,39.61
2023-03-02T09:14:01.065Z,39.65
2023-03-02T09:16:28.478Z,39.91
2023-03-02T09:18:55.847Z,39.99
2023-03-02T09:21:23.190Z,39.60
2023-03-02T09:23:53.809Z,40.18
2023-03-02T09:26:21.398Z,39.49
2023-03-02T09:28:48.698Z,39.87
2023-03-02T09:31:16.050Z,39.40
2023-03-02T09:33:43.425Z,38.91
2023-03-02T09:36:11.793Z,39.00
2023-03-02T09:38:39.156Z,38.84
2023-03-02T09:41:09.447Z,39.10
2023-03-02T09:44:02.751Z,39.17
2023-03-02T09:46:38.211Z,39.08
2023-03-02T09:49:43.060Z,39.35
2023-03-02T09:52:33.539Z,39.25
2023-03-02T09:55:23.501Z,39.14
2023-03-02T09:57:50.848Z,39.04
2023-03-02T10:01:20.327Z,39.39
2023-03-02T10:03:52.797Z,39.05
2023-03-02T10:06:20.197Z,38.49
2023-03-02T10:08:50.511Z,38.79
2023-03-02T10:11:38.985Z,39.23
2023-03-02T10:14:12.091Z,38.78
2023-03-02T10:17:09.222Z,39.14
2023-03-02T10:19:44.593Z,38.60
2023-03-02T10:22:13.632Z,38.97
2023-03-02T10:25:01.344Z,39.21
2023-03-02T10:27:38.692Z,38.96
2023-03-02T10:30:35.795Z,38.95
2023-03-02T10:33:17.467Z,38.39
2023-03-02T10:35:49.727Z,38.21
2023-03-02T10:38:18.784Z,40.27
2023-03-02T10:40:52.986Z,40.25
2023-03-02T10:43:31.097Z,40.61
2023-03-02T10:46:02.625Z,39.67
2023-03-02T10:48:30.046Z,39.54
2023-03-02T10:50:58.467Z,39.62
2023-03-02T10:53:25.852Z,39.92
2023-03-02T10:55:53.523Z,39.99
2023-03-02T10:58:31.563Z,40.25
2023-03-02T11:01:15.370Z,39.55
2023-03-02T11:03:42.746Z,39.83
2023-03-02T11:06:20.301Z,40.14
2023-03-02T11:08:47.600Z,39.58
2023-03-02T11:11:22.256Z,38.83
2023-03-02T11:13:49.714Z,38.83
2023-03-02T11:16:22.292Z,39.17
2023-03-02T11:18:58.806Z,38.79
2023-03-02T11:21:51.455Z,39.34
2023-03-02T11:24:19.669Z,39.25
2023-03-02T11:26:54.242Z,39.88
2023-03-02T11:29:50.232Z,39.12
2023-03-02T11:32:23.331Z,38.54
2023-03-02T11:35:24.614Z,38.13
2023-03-02T11:37:53.636Z,38.56
2023-03-02T11:40:42.464Z,38.39
2023-03-02T11:43:12.454Z,38.02
2023-03-02T11:45:57.717Z,38.07
2023-03-02T11:48:37.500Z,38.11
2023-03-02T11:51:13.590Z,38.06
2023-03-02T11:53:46.749Z,38.41
2023-03-02T11:56:16.468Z,38.15
2023-03-02T11:58:44.090Z,37.53
2023-03-02T12:01:15.836Z,37.86
2023-03-02T12:03:45.002Z,37.47
2023-03-02T12:06:17.104Z,37.19
2023-03-02T12:08:45.888Z,37.51
2023-03-02T12:11:19.565Z,37.70
2023-03-02T12:13:49.874Z,36.77
2023-03-02T12:16:37.798Z,37.05
2023-03-02T12:19:26.326Z,37.39
2023-03-02T12:21:59.087Z,37.26
2023-03-02T12:24:38.033Z,36.81
2023-03-02T12:27:05.729Z,36.35
2023-03-02T12:29:44.148Z,37.20
2023-03-02T12:32:14.203Z,37.21
2023-03-02T12:34:56.346Z,37.04
2023-03-02T12:37:25.955Z,37.14
2023-03-02T12:40:14.576Z,37.82
2023-03-02T12:42:49.052Z,37.71
2023-03-02T12:45:25.628Z,37.39
2023-03-02T12:48:15.792Z,37.54
2023-03-02T12:50:43.032Z,37.73
2023-03-02T12:53:17.018Z,37.34
2023-03-02T12:55:44.342Z,36.96
2023-03-02T12:58:17.878Z,36.72
2023-03-02T13:00:51.084Z,37.33
2023-03-02T13:03:18.768Z,37.79
2023-03-02T13:05:49.003Z,37.70
2023-03-02T13:08:25.390Z,37.15
2023-03-02T13:10:54.134Z,37.32
2023-03-02T13:13:37.358Z,37.10
2023-03-02T13:16:26.244Z,36.76
2023-03-02T13:18:57.192Z,36.35
2023-03-02T13:21:32.793Z,36.81
2023-03-02T13:24:00.266Z,36.88
2023-03-02T13:26:32.933Z,36.85
2023-03-02T13:29:08.236Z,36.29
2023-03-02T13:31:35.676Z,35.74
2023-03-02T13:34:02.987Z,35.84
2023-03-02T13:36:37.605Z,36.94
2023-03-02T13:39:07.620Z,37.11
2023-03-02T13:41:36.603Z,37.44
2023-03-02T13:44:20.649Z,37.53
2023-03-02T13:46:47.923Z,37.12
2023-03-02T13:49:28.954Z,37.94
2023-03-02T13:56:14.943Z,37.76
2023-03-02T13:58:42.226Z,37.58
2023-03-02T14:01:11.157Z,37.55
2023-03-02T14:03:38.612Z,37.34
2023-03-02T14:06:06.328Z,37.33
2023-03-02T14:08:33.572Z,37.09
2023-03-02T14:11:01.259Z,37.26
2023-03-02T14:13:40.593Z,36.55
2023-03-02T14:16:12.926Z,37.06
2023-03-02T14:18:41.150Z,36.72
2023-03-02T14:21:19.413Z,36.59
2023-03-02T14:23:49.245Z,37.40
2023-03-02T14:26:28.661Z,37.15
2023-03-02T14:29:04.959Z,36.47
2023-03-02T14:31:33.974Z,35.21
2023-03-02T14:34:01.533Z,34.79
2023-03-02T14:36:37.082Z,35.91
2023-03-02T14:39:06.470Z,37.38
2023-03-02T14:41:54.248Z,38.28
2023-03-02T14:44:22.399Z,38.95
2023-03-02T14:46:49.851Z,38.91
2023-03-02T14:49:17.185Z,39.54
2023-03-02T14:51:44.875Z,39.74
2023-03-02T14:54:15.536Z,40.03
2023-03-02T14:56:43.112Z,40.04
2023-03-02T14:59:12.647Z,40.98
2023-03-02T15:01:40.779Z,40.38
2023-03-02T15:04:08.126Z,40.75
2023-03-02T15:06:38.001Z,41.29
2023-03-02T15:09:05.418Z,41.15
2023-03-02T15:11:33.309Z,41.45
2023-03-02T15:14:00.794Z,41.25
2023-03-02T15:16:28.093Z,41.91
2023-03-02T15:18:57.744Z,41.90
2023-03-02T15:21:25.930Z,42.55
2023-03-02T15:23:53.422Z,42.60
2023-03-02T15:26:20.743Z,43.17
2023-03-02T15:28:51.800Z,43.17
2023-03-02T15:31:19.309Z,43.36
2023-03-02T15:33:46.784Z,43.74
2023-03-02T15:36:14.206Z,44.27
2023-03-02T15:38:41.602Z,44.04
2023-03-02T15:41:12.410Z,44.32
2023-03-02T15:43:39.726Z,44.43
2023-03-02T15:46:09.179Z,46.21
2023-03-02T15:48:36.891Z,46.89
2023-03-02T15:51:05.889Z,47.11
2023-03-02T15:53:36.766Z,47.24
2023-03-02T15:56:06.476Z,47.67
2023-03-02T15:58:34.525Z,48.50
2023-03-02T16:01:09.499Z,48.41
2023-03-02T16:03:37.440Z,48.87
2023-03-02T16:06:05.141Z,48.75
2023-03-02T16:08:32.458Z,49.33
2023-03-02T16:11:00.676Z,49.66
2023-03-02T16:13:28.369Z,50.57
2023-03-02T16:15:55.619Z,50.83
2023-03-02T16:18:22.912Z,51.15
2023-03-02T16:20:50.210Z,51.20
2023-03-02T16:23:17.529Z,51.14
2023-03-02T16:25:44.909Z,51.32
2023-03-02T16:28:12.244Z,51.41
2023-03-02T16:30:39.792Z,52.48
2023-03-02T16:33:08.718Z,52.26
2023-03-02T16:35:36.355Z,52.48
2023-03-02T16:38:03.806Z,52.92
2023-03-02T16:40:31.229Z,52.11
2023-03-02T16:42:58.502Z,53.32
2023-03-02T16:45:26.994Z,52.92
2023-03-02T16:47:54.414Z,53.55
2023-03-02T16:50:21.756Z,53.78
2023-03-02T16:52:49.056Z,53.57
2023-03-02T16:55:17.753Z,54.00
2023-03-02T16:57:44.999Z,54.97
2023-03-02T17:00:33.855Z,55.30
2023-03-02T17:03:01.220Z,55.49
2023-03-02T17:05:28.535Z,55.52
2023-03-02T17:07:58.875Z,55.01
2023-03-02T17:10:26.282Z,55.42
2023-03-02T17:12:53.639Z,55.33
2023-03-02T17:15:20.940Z,55.04
2023-03-02T17:17:48.158Z,55.39
2023-03-02T17:20:16.687Z,56.24
2023-03-02T17:22:44.025Z,56.01
2023-03-02T17:25:11.484Z,56.93
2023-03-02T17:27:38.837Z,56.89
2023-03-02T17:30:06.879Z,56.99
2023-03-02T17:32:34.388Z,57.68
2023-03-02T17:35:01.793Z,57.78
2023-03-02T17:37:30.400Z,57.57
2023-03-02T17:39:57.731Z,57.12
2023-03-02T17:42:25.264Z,57.62
2023-03-02T17:44:52.684Z,57.92
2023-03-02T17:47:20.127Z,57.57
2023-03-02T17:49:47.434Z,57.34
2023-03-02T17:52:15.967Z,57.47
2023-03-02T17:54:43.379Z,57.42
2023-03-02T17:57:10.892Z,57.41
2023-03-02T17:59:38.324Z,57.65
2023-03-02T18:02:05.599Z,57.48
2023-03-02T18:04:32.987Z,58.32
2023-03-02T18:07:01.623Z,58.40
2023-03-02T18:09:29.014Z,58.12
2023-03-02T18:11:56.253Z,58.42
2023-03-02T18:14:28.368Z,58.66
2023-03-02T18:16:55.788Z,58.42
2023-03-02T18:19:23.047Z,58.65
2023-03-02T18:21:51.256Z,58.95
2023-03-02T18:24:18.532Z,58.83
2023-03-02T18:26:45.795Z,59.12
2023-03-02T18:29:13.135Z,59.92
2023-03-02T18:31:40.600Z,60.06
2023-03-02T18:34:07.963Z,59.83
2023-03-02T18:36:35.264Z,59.59
2023-03-02T18:39:04.034Z,60.27
2023-03-02T18:41:32.427Z,60.22
2023-03-02T18:44:03.575Z,60.42
2023-03-02T18:46:31.631Z,60.62
2023-03-02T18:49:00.547Z,59.81
2023-03-02T18:51:27.829Z,60.46
2023-03-02T18:53:56.078Z,61.01
2023-03-02T18:56:24.820Z,60.59
2023-03-02T18:58:52.152Z,60.97
2023-03-02T19:01:19.540Z,61.58
2023-03-02T19:03:47.044Z,61.66
2023-03-02T19:06:14.673Z,61.62
2023-03-02T19:08:41.998Z,61.25
2023-03-02T19:11:09.270Z,61.71
2023-03-02T19:13:36.801Z,61.67
2023-03-02T19:16:04.387Z,62.03
2023-03-02T19:18:31.662Z,62.27
2023-03-02T19:20:58.952Z,62.93
2023-03-02T19:23:26.425Z,62.40
2023-03-02T19:25:53.765Z,63.06
2023-03-02T19:28:21.773Z,63.11
2023-03-02T19:30:49.637Z,62.83
2023-03-02T19:33:17.197Z,63.23
2023-03-02T19:35:44.715Z,63.80
2023-03-02T19:38:12.707Z,63.80
2023-03-02T19:40:39.994Z,63.46
2023-03-02T19:43:07.377Z,64.26
2023-03-02T19:45:35.694Z,63.71
2023-03-02T19:48:03.603Z,64.17
2023-03-02T19:50:31.193Z,63.99
2023-03-02T19:53:00.518Z,64.44
2023-03-02T19:55:27.851Z,64.27
2023-03-02T19:58:01.048Z,64.38
2023-03-02T20:00:29.803Z,64.82
2023-03-02T20:02:57.630Z,64.38
2023-03-02T20:05:26.127Z,64.75
2023-03-02T20:07:53.643Z,64.85
2023-03-02T20:10:31.366Z,65.23
2023-03-02T20:12:59.748Z,65.03
2023-03-02T20:15:30.548Z,65.59
2023-03-02T20:17:59.472Z,65.27
2023-03-02T20:20:30.186Z,65.87
2023-03-02T20:22:57.527Z,65.92
2023-03-02T20:25:27.973Z,65.79
2023-03-02T20:27:55.313Z,65.69
2023-03-02T20:30:29.874Z,66.83
2023-03-02T20:32:57.300Z,66.70
2023-03-02T20:35:24.993Z,67.22
2023-03-02T20:37:53.065Z,66.67
2023-03-02T20:40:21.506Z,67.26
2023-03-02T20:42:48.859Z,67.77
2023-03-02T20:45:16.220Z,67.61
2023-03-02T20:47:43.563Z,67.56
2023-03-02T20:50:13.121Z,67.13
2023-03-02T20:52:40.364Z,67.06
2023-03-02T20:55:08.649Z,67.47
2023-03-02T20:57:35.898Z,67.53
2023-03-02T21:00:05.911Z,68.19
2023-03-02T21:02:33.324Z,68.19
2023-03-02T21:05:00.777Z,68.65
2023-03-02T21:07:28.109Z,67.87
2023-03-02T21:09:55.390Z,68.89
2023-03-02T21:12:22.755Z,68.35
2023-03-02T21:14:50.102Z,69.32
2023-03-02T21:17:17.371Z,68.95
2023-03-02T21:19:44.646Z,68.95
2023-03-02T21:22:11.872Z,68.63
2023-03-02T21:24:39.259Z,68.70
2023-03-02T21:27:07.329Z,69.29
2023-03-02T21:29:34.646Z,69.15
2023-03-02T21:32:03.494Z,69.22
2023-03-02T21:34:30.781Z,69.80
2023-03-02T21:36:58.457Z,69.86
2023-03-02T21:39:25.798Z,69.91
2023-03-02T21:41:53.098Z,70.01
2023-03-02T21:44:20.523Z,70.01
2023-03-02T21:46:48.027Z,69.45
2023-03-02T21:49:19.049Z,69.71
2023-03-02T21:51:48.110Z,70.61
2023-03-02T21:54:16.198Z,70.34
2023-03-02T21:56:43.798Z,70.06
2023-03-02T21:59:11.186Z,70.03
2023-03-02T22:01:38.712Z,70.26
2023-03-02T22:04:06.059Z,70.55
2023-03-02T22:06:33.672Z,69.90
2023-03-02T22:09:01.753Z,69.92
2023-03-02T22:11:36.234Z,70.12
2023-03-02T22:14:14.043Z,70.55
2023-03-02T22:16:42.882Z,71.27
2023-03-02T22:19:29.284Z,71.52
2023-03-02T22:21:59.150Z,71.46
2023-03-02T22:24:30.675Z,71.87
2023-03-02T22:27:16.634Z,71.45
2023-03-02T22:29:45.235Z,72.00
2023-03-02T22:32:17.684Z,71.93
2023-03-02T22:34:46.122Z,72.13
2023-03-02T22:37:15.176Z,71.20
2023-03-02T22:39:42.582Z,71.37
2023-03-02T22:42:12.263Z,71.96
2023-03-02T22:44:39.499Z,71.74
2023-03-02T22:47:14.637Z,71.70
2023-03-02T22:49:41.872Z,71.79
2023-03-02T22:52:37.142Z,71.62
2023-03-02T22:55:37.343Z,71.50
2023-03-02T22:58:32.337Z,71.61
2023-03-02T23:01:00.443Z,71.92
2023-03-02T23:03:40.171Z,72.33
2023-03-02T23:06:24.298Z,72.26
2023-03-02T23:08:58.695Z,71.91
2023-03-02T23:11:26.353Z,72.05
2023-03-02T23:13:53.852Z,71.95
2023-03-02T23:16:26.143Z,72.27
2023-03-02T23:18:55.186Z,72.27
2023-03-02T23:21:38.832Z,71.82
2023-03-02T23:24:07.582Z,71.45
2023-03-02T23:26:34.966Z,72.64
2023-03-02T23:29:02.357Z,71.85
2023-03-02T23:31:29.761Z,72.29
2023-03-02T23:33:57.086Z,72.42
2023-03-02T23:36:24.357Z,72.47
2023-03-02T23:38:51.704Z,72.63
2023-03-02T23:41:19.094Z,72.49
2023-03-02T23:43:46.472Z,72.89
2023-03-02T23:46:14.463Z,72.19
2023-03-02T23:48:42.190Z,73.12
2023-03-02T23:51:10.050Z,73.11
2023-03-02T23:53:37.366Z,73.17
2023-03-02T23:56:04.899Z,72.91
2023-03-02T23:58:32.306Z,72.66
